Time;durP1;ratioP1;P1;durP2;ratioP2;P2;SDS_P1;SDS_P2;PMS_P1;PMS_P2;Temp;Humidity;BMP_temperature;BMP_pressure;BME280_temperature;BME280_humidity;BME280_pressure;Samples;Min_cycle;Max_cycle;Signal;HPM_P1;HPM_P2
2023/04/15 00:00:34;;;;;;;1.30;1.20;;;;;;;21.82;28.13;99803.88;4530903;28;20037;-59
2023/04/15 00:02:44;;;;;;;1.63;1.20;;;;;;;21.87;27.58;99808.44;4528755;28;20440;-59
2023/04/15 00:04:55;;;;;;;1.23;1.13;;;;;;;21.88;28.04;99810.91;4531384;28;20048;-59
2023/04/15 00:07:05;;;;;;;1.33;1.23;;;;;;;21.86;28.10;99799.03;4531213;28;20114;-59
2023/04/15 00:09:15;;;;;;;1.67;1.30;;;;;;;21.85;28.04;99802.28;4531677;28;20520;-59
2023/04/15 00:11:26;;;;;;;1.23;1.13;;;;;;;21.86;27.87;99806.81;4534244;28;20057;-58
2023/04/15 00:13:37;;;;;;;1.23;1.17;;;;;;;21.85;28.06;99805.97;4534182;28;20038;-59
2023/04/15 00:15:47;;;;;;;1.52;1.40;;;;;;;21.80;28.14;99797.69;4535112;28;20802;-59
2023/04/15 00:17:58;;;;;;;1.40;1.30;;;;;;;21.85;28.25;99805.97;4526974;28;20064;-59
2023/04/15 00:20:09;;;;;;;1.38;1.27;;;;;;;21.85;27.99;99800.22;4534452;28;20059;-58
2023/04/15 00:22:19;;;;;;;1.70;1.60;;;;;;;21.85;28.21;99797.34;4524965;28;20068;-58
2023/04/15 00:24:30;;;;;;;1.40;1.30;;;;;;;21.85;28.13;99794.47;4535707;28;20056;-60
2023/04/15 00:26:41;;;;;;;1.85;1.50;;;;;;;21.83;27.87;99785.44;4532508;28;20168;-59
2023/04/15 00:28:51;;;;;;;1.55;1.45;;;;;;;21.82;27.61;99788.69;4534017;28;20128;-58
2023/04/15 00:31:03;;;;;;;1.50;1.40;;;;;;;21.83;27.58;99788.31;4523019;28;20037;-59
2023/04/15 00:33:13;;;;;;;1.40;1.30;;;;;;;21.80;27.73;99780.47;4534441;28;20033;-59
2023/04/15 00:35:24;;;;;;;1.30;1.20;;;;;;;21.78;27.48;99777.19;4534023;28;20070;-59
2023/04/15 00:37:35;;;;;;;1.45;1.35;;;;;;;21.82;27.71;99782.94;4532609;28;20039;-59
2023/04/15 00:39:46;;;;;;;1.52;1.42;;;;;;;21.77;27.21;99769.78;4534639;28;20115;-59
2023/04/15 00:41:56;;;;;;;1.50;1.40;;;;;;;21.83;27.29;99778.88;4533035;28;20029;-59
2023/04/15 00:44:07;;;;;;;1.40;1.30;;;;;;;21.80;27.52;99779.66;4534405;28;20036;-59
2023/04/15 00:46:20;;;;;;;1.30;1.20;;;;;;;21.83;27.13;99778.88;4519194;28;20612;-60
2023/04/15 00:48:31;;;;;;;1.73;1.50;;;;;;;21.79;27.65;99773.06;4515907;28;20040;-59
2023/04/15 00:50:41;;;;;;;1.50;1.40;;;;;;;21.81;27.25;99776.38;4533769;28;20065;-59
2023/04/15 00:52:52;;;;;;;1.35;1.25;;;;;;;21.80;27.44;99779.66;4531574;28;20092;-59
2023/04/15 00:55:03;;;;;;;1.73;1.40;;;;;;;21.80;27.73;99779.66;4534645;28;20068;-58
2023/04/15 00:57:13;;;;;;;1.42;1.30;;;;;;;21.79;27.76;99781.69;4532943;28;20088;-59
2023/04/15 00:59:24;;;;;;;1.67;1.58;;;;;;;21.76;27.64;99773.88;4509600;28;20064;-59
2023/04/15 01:01:35;;;;;;;1.52;1.42;;;;;;;21.76;27.92;99768.13;4531440;28;20147;-59
2023/04/15 01:03:48;;;;;;;1.50;1.40;;;;;;;21.80;27.78;99774.72;4534233;28;20686;-59
2023/04/15 01:05:59;;;;;;;1.48;1.38;;;;;;;21.79;27.45;99773.06;4534250;28;20045;-59
2023/04/15 01:08:10;;;;;;;1.50;1.40;;;;;;;21.73;27.05;99756.56;4523153;28;20037;-59
2023/04/15 01:10:21;;;;;;;1.50;1.40;;;;;;;21.75;27.44;99766.50;4533501;28;20536;-59
2023/04/15 01:12:33;;;;;;;1.60;1.50;;;;;;;21.75;27.12;99765.63;4533478;28;20066;-59
2023/04/15 01:14:43;;;;;;;1.60;1.50;;;;;;;21.76;27.04;99770.16;4507737;28;20578;-59
2023/04/15 01:16:54;;;;;;;1.60;1.50;;;;;;;21.75;27.19;99766.50;4532646;28;20041;-59
2023/04/15 01:19:09;;;;;;;1.77;1.67;;;;;;;21.71;27.50;99759.84;4534357;28;20180;-59
2023/04/15 01:21:20;;;;;;;1.50;1.40;;;;;;;21.73;27.48;99765.19;4531063;28;20040;-59
2023/04/15 01:23:31;;;;;;;1.50;1.40;;;;;;;21.77;27.37;99772.63;4532766;28;20080;-59
2023/04/15 01:25:43;;;;;;;1.50;1.40;;;;;;;21.75;27.22;99760.75;4533091;28;20034;-60
2023/04/15 01:27:53;;;;;;;1.30;1.20;;;;;;;21.75;27.18;99766.50;4532604;28;20040;-58
2023/04/15 01:30:05;;;;;;;1.63;1.52;;;;;;;21.75;27.09;99779.97;4534366;28;20115;-59
2023/04/15 01:32:16;;;;;;;1.30;1.20;;;;;;;21.75;27.20;99780.84;4533199;28;20281;-59
2023/04/15 01:34:27;;;;;;;1.20;1.10;;;;;;;21.72;27.31;99772.97;4533488;28;20033;-59
2023/04/15 01:36:38;;;;;;;1.45;1.30;;;;;;;21.72;27.37;99775.84;4533582;28;20045;-59
2023/04/15 01:38:49;;;;;;;1.40;1.30;;;;;;;21.73;27.09;99771.75;4532209;28;20038;-58
2023/04/15 01:41:00;;;;;;;1.27;1.17;;;;;;;21.74;26.70;99784.88;4534045;28;20049;-59
2023/04/15 01:43:10;;;;;;;1.40;1.30;;;;;;;21.71;27.02;99779.94;4534440;28;20055;-59
2023/04/15 01:45:21;;;;;;;1.20;1.10;;;;;;;21.70;26.41;99786.91;4515909;28;20125;-59
2023/04/15 01:47:32;;;;;;;1.30;1.20;;;;;;;21.67;26.43;99781.13;4533685;28;20043;-59
2023/04/15 01:49:42;;;;;;;1.25;1.15;;;;;;;21.71;26.54;99793.47;4514256;28;20622;-58
2023/04/15 01:51:53;;;;;;;1.30;1.20;;;;;;;21.71;26.83;99787.72;4533499;28;20739;-59
2023/04/15 01:54:04;;;;;;;1.30;1.20;;;;;;;21.71;26.67;99797.16;4516496;28;20029;-58
2023/04/15 01:56:14;;;;;;;1.30;1.20;;;;;;;21.71;26.74;99794.31;4533000;28;20033;-59
2023/04/15 01:58:27;;;;;;;1.48;1.35;;;;;;;21.73;27.15;99793.91;4504995;28;20038;-58
2023/04/15 02:00:41;;;;;;;1.40;1.30;;;;;;;21.70;27.10;99792.66;4532254;28;20485;-59
2023/04/15 02:02:52;;;;;;;1.40;1.30;;;;;;;21.71;26.55;99794.31;4534387;28;20139;-58
2023/04/15 02:05:04;;;;;;;1.50;1.40;;;;;;;21.65;26.75;99790.13;4533077;28;20536;-59
2023/04/15 02:07:14;;;;;;;1.30;1.20;;;;;;;21.72;26.63;99801.69;4531760;28;20041;-59
2023/04/15 02:09:25;;;;;;;1.50;1.40;;;;;;;21.70;26.91;99800.44;4531756;28;20025;-58
2023/04/15 02:11:36;;;;;;;1.60;1.50;;;;;;;21.66;26.68;99796.72;4532075;28;20611;-59
2023/04/15 02:13:47;;;;;;;1.55;1.45;;;;;;;21.68;26.61;99800.84;4534292;28;20037;-59
2023/04/15 02:15:58;;;;;;;1.50;1.40;;;;;;;21.70;26.78;99804.16;4531805;28;20486;-58
2023/04/15 02:18:09;;;;;;;1.65;1.55;;;;;;;21.67;26.40;99798.34;4531635;28;20862;-59
2023/04/15 02:20:20;;;;;;;1.40;1.30;;;;;;;21.69;26.09;99805.34;4532209;28;20037;-59
2023/04/15 02:22:30;;;;;;;1.58;1.48;;;;;;;21.68;25.94;99806.59;4531435;28;20052;-59
2023/04/15 02:24:41;;;;;;;1.48;1.38;;;;;;;21.68;26.18;99815.19;4531780;28;20047;-59
2023/04/15 02:26:53;;;;;;;1.70;1.60;;;;;;;21.64;25.81;99805.72;4516433;28;20037;-59
2023/04/15 02:29:06;;;;;;;1.45;1.35;;;;;;;21.64;26.28;99799.16;4531015;28;20043;-58
2023/04/15 02:31:17;;;;;;;1.30;1.20;;;;;;;21.64;26.48;99802.84;4512675;28;20109;-59
2023/04/15 02:33:27;;;;;;;1.70;1.60;;;;;;;21.67;26.04;99804.09;4531300;28;20029;-60
2023/04/15 02:35:40;;;;;;;1.42;1.33;;;;;;;21.67;26.30;99813.56;4519232;28;20553;-60
2023/04/15 02:37:52;;;;;;;1.48;1.38;;;;;;;21.67;26.18;99813.56;4521801;28;20130;-59
2023/04/15 02:40:03;;;;;;;1.60;1.50;;;;;;;21.64;26.38;99811.47;4520871;28;20035;-59
2023/04/15 02:42:14;;;;;;;1.63;1.52;;;;;;;21.63;26.57;99808.97;4534020;28;20247;-60
2023/04/15 02:44:25;;;;;;;1.88;1.50;;;;;;;21.66;26.59;99816.81;4530775;28;20059;-59
2023/04/15 02:46:40;;;;;;;1.60;1.50;;;;;;;21.65;26.59;99818.84;4515483;28;20672;-60
2023/04/15 02:48:52;;;;;;;1.70;1.60;;;;;;;21.64;26.56;99817.22;4531138;28;20964;-60
2023/04/15 02:51:17;;;;;;;1.60;1.50;;;;;;;21.65;26.28;99820.91;4530152;28;20777;-60
2023/04/15 02:53:27;;;;;;;1.60;1.50;;;;;;;21.63;26.26;99815.53;4535366;28;20422;-64
2023/04/15 02:55:38;;;;;;;1.70;1.60;;;;;;;21.62;26.77;99811.03;4520093;28;20033;-61
2023/04/15 02:57:48;;;;;;;1.55;1.45;;;;;;;21.60;26.73;99810.59;4521057;28;20050;-60
2023/04/15 02:59:58;;;;;;;1.50;1.40;;;;;;;21.58;26.44;99804.41;4531521;28;20033;-60
2023/04/15 03:02:09;;;;;;;1.70;1.60;;;;;;;21.57;26.65;99805.63;4515401;28;20560;-60
2023/04/15 03:04:20;;;;;;;1.55;1.45;;;;;;;21.63;26.56;99817.56;4514559;28;20041;-59
2023/04/15 03:06:30;;;;;;;1.50;1.40;;;;;;;21.60;26.74;99816.34;4505600;28;20068;-59
2023/04/15 03:08:41;;;;;;;2.10;1.63;;;;;;;21.63;26.85;99817.56;4523348;28;21021;-58
2023/04/15 03:10:52;;;;;;;1.60;1.50;;;;;;;21.58;26.81;99804.41;4532853;28;20028;-59
2023/04/15 03:13:02;;;;;;;1.50;1.40;;;;;;;21.61;26.87;99814.28;4531697;28;20075;-59
2023/04/15 03:15:14;;;;;;;1.58;1.48;;;;;;;21.60;27.05;99819.19;4533546;28;20055;-60
2023/04/15 03:17:28;;;;;;;1.60;1.50;;;;;;;21.60;27.24;99807.72;4512396;28;20049;-58
2023/04/15 03:19:39;;;;;;;1.50;1.40;;;;;;;21.46;27.39;99789.50;4533747;28;20095;-59
2023/04/15 03:21:52;;;;;;;1.45;1.35;;;;;;;21.58;27.23;99801.53;4515439;28;20129;-58
2023/04/15 03:24:02;;;;;;;1.77;1.65;;;;;;;21.60;26.72;99807.72;4515859;28;20475;-58
2023/04/15 03:26:30;;;;;;;1.50;1.40;;;;;;;21.60;26.56;99816.34;4515870;28;20040;-58
2023/04/15 03:28:44;;;;;;;2.10;1.70;;;;;;;21.58;26.37;99810.16;4514043;28;20037;-58
2023/04/15 03:30:59;;;;;;;1.70;1.60;;;;;;;21.53;26.54;99799.00;4533375;28;20040;-58
2023/04/15 03:33:09;;;;;;;2.03;1.70;;;;;;;21.53;26.31;99804.75;4532631;28;20029;-58
2023/04/15 03:35:21;;;;;;;1.70;1.60;;;;;;;21.56;26.38;99812.59;4530212;28;20064;-58
2023/04/15 03:37:31;;;;;;;1.92;1.73;;;;;;;21.51;26.29;99798.59;4530220;28;20557;-59
2023/04/15 03:39:41;;;;;;;1.70;1.60;;;;;;;21.56;26.14;99812.59;4515964;28;20037;-59
2023/04/15 03:41:52;;;;;;;1.50;1.40;;;;;;;21.56;26.01;99806.88;4531228;28;20592;-59
2023/04/15 03:44:02;;;;;;;1.65;1.55;;;;;;;21.57;26.43;99805.63;4532839;28;20044;-59
2023/04/15 03:46:13;;;;;;;1.60;1.50;;;;;;;21.57;26.56;99805.63;4517845;28;20041;-59
2023/04/15 03:48:23;;;;;;;1.80;1.70;;;;;;;21.55;26.23;99808.06;4524204;28;20041;-59
2023/04/15 03:50:33;;;;;;;1.70;1.60;;;;;;;21.53;26.59;99806.81;4519862;28;20033;-59
2023/04/15 03:52:44;;;;;;;1.50;1.40;;;;;;;21.57;26.59;99810.53;4535215;28;20064;-59
2023/04/15 03:54:55;;;;;;;1.60;1.45;;;;;;;21.55;26.67;99805.19;4537656;28;20044;-58
2023/04/15 03:57:05;;;;;;;1.33;1.23;;;;;;;21.49;26.73;99800.19;4536134;28;20076;-59
2023/04/15 03:59:15;;;;;;;1.73;1.63;;;;;;;21.53;26.36;99813.38;4535842;28;20040;-60
2023/04/15 04:01:26;;;;;;;1.50;1.40;;;;;;;21.54;26.30;99828.56;4533162;28;20034;-59
2023/04/15 04:03:36;;;;;;;1.60;1.50;;;;;;;21.55;26.44;99828.16;4535665;28;20029;-59
2023/04/15 04:05:47;;;;;;;1.63;1.50;;;;;;;21.56;26.34;99832.72;4531924;28;20393;-59
2023/04/15 04:07:57;;;;;;;1.52;1.42;;;;;;;21.52;26.43;99828.94;4533150;28;20075;-59
2023/04/15 04:10:08;;;;;;;1.67;1.58;;;;;;;21.54;26.68;99838.00;4531800;28;20065;-59
2023/04/15 04:12:18;;;;;;;1.75;1.58;;;;;;;21.54;26.31;99840.88;4533460;28;20585;-60
2023/04/15 04:14:29;;;;;;;1.42;1.33;;;;;;;21.51;26.46;99838.78;4534225;28;20036;-59
2023/04/15 04:16:39;;;;;;;1.60;1.50;;;;;;;21.50;26.40;99831.38;4533537;28;20029;-59
2023/04/15 04:18:50;;;;;;;1.67;1.58;;;;;;;21.53;26.45;99839.22;4535119;28;20090;-58
2023/04/15 04:21:00;;;;;;;1.60;1.50;;;;;;;21.52;26.53;99836.72;4534663;28;20037;-59
2023/04/15 04:23:11;;;;;;;1.40;1.30;;;;;;;21.52;26.41;99842.47;4534306;28;20392;-59
2023/04/15 04:25:21;;;;;;;1.60;1.50;;;;;;;21.52;26.06;99843.31;4534831;28;20064;-59
2023/04/15 04:27:32;;;;;;;2.17;1.40;;;;;;;21.53;26.51;99839.22;4533241;28;20148;-58
2023/04/15 04:29:42;;;;;;;1.55;1.45;;;;;;;21.46;26.04;99829.69;4532521;28;20032;-59
2023/04/15 04:31:53;;;;;;;2.05;1.75;;;;;;;21.51;25.95;99847.41;4532540;28;20045;-59
2023/04/15 04:34:03;;;;;;;1.58;1.48;;;;;;;21.42;26.39;99823.91;4519855;28;20080;-59
2023/04/15 04:36:14;;;;;;;1.80;1.70;;;;;;;21.47;26.01;99835.03;4534711;28;20030;-59
2023/04/15 04:38:24;;;;;;;2.13;1.90;;;;;;;21.50;26.62;99842.88;4534171;28;20036;-59
2023/04/15 04:40:35;;;;;;;1.80;1.70;;;;;;;21.52;26.29;99837.56;4532692;28;20047;-59
2023/04/15 04:42:46;;;;;;;1.80;1.70;;;;;;;21.52;26.48;99842.47;4523277;28;20414;-58
2023/04/15 04:44:56;;;;;;;1.75;1.65;;;;;;;21.49;26.87;99840.38;4534989;28;20041;-59
2023/04/15 04:47:07;;;;;;;1.73;1.60;;;;;;;21.51;26.88;99846.56;4536622;28;20063;-59
2023/04/15 04:49:17;;;;;;;1.52;1.42;;;;;;;21.51;26.92;99841.66;4535978;28;20028;-59
2023/04/15 04:51:28;;;;;;;1.60;1.50;;;;;;;21.50;26.86;99844.94;4532976;28;20021;-58
2023/04/15 04:53:38;;;;;;;1.73;1.63;;;;;;;21.47;26.43;99842.84;4531236;28;20068;-59
2023/04/15 04:55:48;;;;;;;1.60;1.50;;;;;;;21.51;26.70;99847.41;4531991;28;20044;-59
2023/04/15 04:57:59;;;;;;;1.60;1.50;;;;;;;21.49;26.63;99849.00;4534386;28;20171;-60
2023/04/15 05:00:10;;;;;;;1.50;1.40;;;;;;;21.49;27.03;99846.97;4531470;28;20029;-59
2023/04/15 05:02:20;;;;;;;1.98;1.88;;;;;;;21.47;27.24;99845.72;4531200;28;20037;-59
2023/04/15 05:04:31;;;;;;;1.80;1.70;;;;;;;21.47;27.25;99852.25;4533548;28;20065;-59
2023/04/15 05:06:41;;;;;;;1.73;1.63;;;;;;;21.49;27.21;99851.88;4535016;28;20758;-59
2023/04/15 05:08:51;;;;;;;1.83;1.67;;;;;;;21.50;27.57;99857.22;4531748;28;20462;-59
2023/04/15 05:11:02;;;;;;;2.05;1.90;;;;;;;21.38;27.39;99840.28;4534012;28;20048;-58
2023/04/15 05:13:13;;;;;;;2.10;2.00;;;;;;;21.49;27.40;99861.31;4532072;28;20033;-59
2023/04/15 05:15:23;;;;;;;2.47;2.28;;;;;;;21.49;27.38;99855.59;4533289;28;20063;-60
2023/04/15 05:17:34;;;;;;;2.30;2.10;;;;;;;21.45;27.66;99848.97;4533315;28;20394;-58
2023/04/15 05:19:44;;;;;;;2.22;2.03;;;;;;;21.47;27.37;99860.88;4532208;28;20037;-58
2023/04/15 05:21:55;;;;;;;2.42;2.10;;;;;;;21.47;27.62;99863.75;4532660;28;20327;-56
2023/04/15 05:24:05;;;;;;;2.40;2.20;;;;;;;21.48;27.60;99871.16;4534328;28;20045;-59
2023/04/15 05:26:16;;;;;;;2.92;2.50;;;;;;;21.48;27.53;99873.19;4533452;28;20041;-59
2023/04/15 05:28:27;;;;;;;2.38;2.17;;;;;;;21.47;27.63;99869.50;4533726;28;20453;-56
2023/04/15 05:30:37;;;;;;;1.92;1.80;;;;;;;21.46;27.66;99873.59;4532843;28;20616;-59
2023/04/15 05:32:48;;;;;;;2.10;1.90;;;;;;;21.44;28.25;99866.56;4534011;28;20068;-59
2023/04/15 05:34:59;;;;;;;2.00;1.80;;;;;;;21.44;28.21;99869.44;4533455;28;20032;-59
2023/04/15 05:37:09;;;;;;;2.20;1.98;;;;;;;21.46;28.46;99878.50;4534744;28;20048;-59
2023/04/15 05:39:20;;;;;;;2.50;2.00;;;;;;;21.43;28.47;99874.38;4532391;28;20040;-59
2023/04/15 05:41:30;;;;;;;2.10;2.00;;;;;;;21.45;28.34;99876.84;4534514;28;20540;-59
2023/04/15 05:43:41;;;;;;;2.30;2.10;;;;;;;21.46;28.41;99887.94;4532121;28;20094;-59
2023/04/15 05:45:51;;;;;;;2.08;1.83;;;;;;;21.45;28.52;99889.19;4533388;28;20056;-59
2023/04/15 05:48:02;;;;;;;2.10;1.90;;;;;;;21.45;28.85;99883.44;4534968;28;20029;-58
2023/04/15 05:50:12;;;;;;;2.08;1.88;;;;;;;21.44;28.69;99884.63;4521006;28;20687;-59
2023/04/15 05:52:22;;;;;;;2.38;1.88;;;;;;;21.41;28.98;99887.44;4531336;28;20033;-59
2023/04/15 05:54:33;;;;;;;2.25;2.05;;;;;;;21.44;28.87;99890.38;4531146;28;20134;-58
2023/04/15 05:56:43;;;;;;;2.20;2.00;;;;;;;21.45;29.13;99899.81;4534209;28;20029;-59
2023/04/15 05:58:54;;;;;;;2.53;2.33;;;;;;;21.43;29.40;99891.59;4532104;28;20033;-58
2023/04/15 06:01:04;;;;;;;2.25;2.05;;;;;;;21.29;29.32;99879.09;4532769;28;20033;-60
2023/04/15 06:03:15;;;;;;;2.33;2.00;;;;;;;21.45;29.50;99909.28;4516298;28;20519;-59
2023/04/15 06:05:26;;;;;;;2.30;2.10;;;;;;;21.41;29.23;99899.78;4530457;28;20580;-58
2023/04/15 06:07:37;;;;;;;2.47;2.28;;;;;;;21.43;29.18;99914.56;4532576;28;20037;-58
2023/04/15 06:09:49;;;;;;;2.40;2.20;;;;;;;21.44;29.44;99909.63;4530357;28;20037;-59
2023/04/15 06:12:00;;;;;;;2.20;2.00;;;;;;;21.39;29.86;99901.38;4530531;28;20037;-58
2023/04/15 06:14:11;;;;;;;2.25;2.05;;;;;;;21.42;29.60;99912.91;4529744;28;20040;-58
2023/04/15 06:16:22;;;;;;;2.20;2.00;;;;;;;21.42;29.92;99912.91;4532030;28;20138;-59
2023/04/15 06:18:32;;;;;;;2.17;1.98;;;;;;;21.45;29.82;99912.16;4531882;28;20568;-58
2023/04/15 06:20:43;;;;;;;2.13;1.92;;;;;;;21.42;30.19;99912.09;4517253;28;20049;-59
2023/04/15 06:22:53;;;;;;;2.03;1.83;;;;;;;21.43;30.02;99908.81;4517417;28;20033;-59
2023/04/15 06:25:06;;;;;;;1.90;1.80;;;;;;;21.45;30.20;99912.16;4531425;28;20638;-59
2023/04/15 06:27:18;;;;;;;1.80;1.67;;;;;;;21.41;30.29;99904.69;4528520;28;20033;-59
2023/04/15 06:29:28;;;;;;;1.88;1.73;;;;;;;21.46;30.27;99924.44;4528739;28;20509;-59
2023/04/15 06:31:38;;;;;;;1.85;1.75;;;;;;;21.42;30.58;99912.91;4520362;28;20122;-58
2023/04/15 06:33:49;;;;;;;1.88;1.77;;;;;;;21.42;30.84;99917.84;4530816;28;20041;-60
2023/04/15 06:35:59;;;;;;;2.13;1.90;;;;;;;21.47;30.80;99921.19;4530537;28;20129;-58
2023/04/15 06:38:10;;;;;;;1.83;1.73;;;;;;;21.41;30.96;99910.41;4519975;28;20037;-58
2023/04/15 06:40:21;;;;;;;3.17;1.90;;;;;;;21.45;31.45;99917.88;4523081;28;20487;-57
2023/04/15 06:42:31;;;;;;;1.88;1.70;;;;;;;21.45;31.26;99929.38;4529935;28;20055;-58
2023/04/15 06:44:42;;;;;;;2.20;2.00;;;;;;;21.46;31.22;99927.31;4529043;28;20040;-58
2023/04/15 06:46:52;;;;;;;2.67;1.77;;;;;;;21.47;31.44;99929.78;4512090;28;20037;-58
2023/04/15 06:49:04;;;;;;;2.35;2.10;;;;;;;21.49;31.20;99932.28;4528308;28;20334;-58
2023/04/15 06:51:14;;;;;;;1.80;1.70;;;;;;;21.49;31.87;99935.13;4528616;28;20978;-58
2023/04/15 06:53:28;;;;;;;2.03;1.85;;;;;;;21.47;31.97;99932.66;4529597;28;20107;-59
2023/04/15 06:55:39;;;;;;;2.28;2.08;;;;;;;21.47;31.91;99937.59;4510541;28;20045;-59
2023/04/15 06:57:49;;;;;;;2.17;1.98;;;;;;;21.49;31.72;99933.09;4531142;28;20565;-58
2023/04/15 07:00:00;;;;;;;2.28;1.95;;;;;;;21.47;32.02;99932.66;4527140;28;20088;-59
2023/04/15 07:02:12;;;;;;;2.45;2.08;;;;;;;21.49;31.81;99938.00;4531793;28;20045;-59
2023/04/15 07:04:23;;;;;;;2.72;1.83;;;;;;;21.48;32.37;99940.06;4508677;28;20493;-58
2023/04/15 07:06:34;;;;;;;2.85;2.20;;;;;;;21.43;32.16;99937.53;4532508;28;20033;-59
2023/04/15 07:08:44;;;;;;;2.30;2.10;;;;;;;21.48;32.37;99927.75;4533075;28;20029;-58
2023/04/15 07:10:56;;;;;;;2.25;2.05;;;;;;;21.47;32.15;99932.66;4533575;28;20040;-58
2023/04/15 07:13:07;;;;;;;2.40;2.20;;;;;;;21.49;32.70;99935.97;4531063;28;20033;-60
2023/04/15 07:15:18;;;;;;;2.25;2.03;;;;;;;21.48;32.19;99933.50;4530986;28;21365;-58
2023/04/15 07:17:28;;;;;;;2.00;1.80;;;;;;;21.47;32.43;99931.84;4531135;28;20060;-58
2023/04/15 07:19:39;;;;;;;2.20;2.00;;;;;;;21.49;32.58;99935.13;4531148;28;20260;-58
2023/04/15 07:21:50;;;;;;;1.90;1.80;;;;;;;21.47;32.66;99928.97;4534777;28;20106;-58
2023/04/15 07:24:00;;;;;;;2.20;2.00;;;;;;;21.45;32.79;99928.53;4536716;28;20053;-58
2023/04/15 07:26:11;;;;;;;2.30;2.10;;;;;;;21.50;32.82;99946.22;4538817;28;20037;-59
2023/04/15 07:28:21;;;;;;;2.38;2.17;;;;;;;21.48;32.69;99940.06;4535842;28;20036;-58
2023/04/15 07:30:32;;;;;;;2.10;1.90;;;;;;;21.49;32.81;99941.72;4536512;28;20026;-58
2023/04/15 07:32:42;;;;;;;2.50;2.30;;;;;;;21.47;33.07;99938.41;4535419;28;20066;-58
2023/04/15 07:34:52;;;;;;;2.22;2.03;;;;;;;21.49;33.39;99952.38;4536365;28;20041;-59
2023/04/15 07:37:03;;;;;;;2.90;2.00;;;;;;;21.48;33.13;99948.69;4520545;28;20052;-57
2023/04/15 07:39:13;;;;;;;2.20;2.00;;;;;;;21.49;33.61;99953.22;4536066;28;20127;-58
2023/04/15 07:41:24;;;;;;;2.30;1.98;;;;;;;21.46;32.99;99945.38;4535763;28;20072;-58
2023/04/15 07:43:35;;;;;;;2.40;2.20;;;;;;;21.49;33.04;99956.06;4537572;28;20037;-59
2023/04/15 07:45:45;;;;;;;2.30;2.10;;;;;;;21.46;33.05;99948.25;4536313;28;20146;-60
2023/04/15 07:47:56;;;;;;;2.22;2.03;;;;;;;21.47;32.98;99949.88;4537223;28;20445;-59
2023/04/15 07:50:08;;;;;;;2.40;2.20;;;;;;;21.47;32.93;99947.00;4539287;28;20041;-58
2023/04/15 07:52:18;;;;;;;2.47;2.28;;;;;;;21.41;32.92;99942.84;4519021;28;20323;-59
2023/04/15 07:54:29;;;;;;;2.65;2.45;;;;;;;21.50;33.39;99959.78;4537022;28;20119;-58
2023/04/15 07:56:40;;;;;;;3.45;2.47;;;;;;;21.48;33.04;99954.44;4536692;28;20076;-59
2023/04/15 07:58:50;;;;;;;2.30;2.10;;;;;;;21.49;33.50;99958.13;4536468;28;20908;-59
2023/04/15 08:01:01;;;;;;;2.97;2.67;;;;;;;21.45;33.31;99949.47;4523836;28;20052;-60
2023/04/15 08:03:11;;;;;;;2.42;2.22;;;;;;;21.47;33.43;99958.50;4523549;28;20121;-58
2023/04/15 08:05:21;;;;;;;2.70;2.50;;;;;;;21.49;33.69;99956.06;4537462;28;20060;-58
2023/04/15 08:07:32;;;;;;;2.90;2.60;;;;;;;21.49;33.26;99955.25;4539118;28;20032;-59
2023/04/15 08:09:43;;;;;;;2.70;2.50;;;;;;;21.44;33.83;99959.28;4538096;28;20056;-59
2023/04/15 08:11:53;;;;;;;3.00;2.70;;;;;;;21.47;33.88;99955.63;4536087;28;20069;-58
2023/04/15 08:14:04;;;;;;;2.53;2.33;;;;;;;21.48;33.89;99968.78;4538316;28;20100;-59
2023/04/15 08:16:23;;;;;;;2.90;2.60;;;;;;;21.47;33.79;99958.50;4537974;28;20119;-58
2023/04/15 08:18:33;;;;;;;3.08;2.78;;;;;;;21.48;33.20;99965.09;4519281;28;20048;-59
2023/04/15 08:20:44;;;;;;;2.95;2.65;;;;;;;21.46;33.63;99965.47;4535992;28;20025;-58
2023/04/15 08:22:55;;;;;;;2.95;2.60;;;;;;;21.47;33.90;99963.44;4536919;28;20061;-59
2023/04/15 08:25:05;;;;;;;3.13;2.83;;;;;;;21.49;34.07;99964.69;4535530;28;20584;-59
2023/04/15 08:27:16;;;;;;;2.67;2.47;;;;;;;21.48;34.25;99963.06;4535311;28;20064;-58
2023/04/15 08:29:26;;;;;;;2.70;2.50;;;;;;;21.47;33.99;99961.38;4536655;28;20111;-58
2023/04/15 08:31:37;;;;;;;2.70;2.50;;;;;;;21.48;33.84;99962.22;4533669;28;20141;-59
2023/04/15 08:33:47;;;;;;;2.47;2.25;;;;;;;21.45;33.62;99960.97;4533640;28;20049;-58
2023/04/15 08:35:58;;;;;;;2.55;2.35;;;;;;;21.46;34.15;99962.59;4532134;28;20037;-59
2023/04/15 08:38:08;;;;;;;2.67;2.47;;;;;;;21.49;34.22;99970.44;4530397;28;20037;-59
2023/04/15 08:40:22;;;;;;;2.88;2.60;;;;;;;21.49;34.03;99964.69;4532481;28;20034;-59
2023/04/15 08:42:43;;;;;;;2.50;2.20;;;;;;;21.47;34.41;99958.50;4534799;28;20034;-59
2023/04/15 08:44:54;;;;;;;2.50;2.20;;;;;;;21.49;34.09;99973.31;4533896;28;20216;-59
2023/04/15 08:47:07;;;;;;;2.20;2.00;;;;;;;21.51;34.05;99976.63;4533282;28;20565;-59
2023/04/15 08:49:20;;;;;;;2.30;2.10;;;;;;;21.51;34.42;99975.78;4531757;28;20599;-58
2023/04/15 08:51:31;;;;;;;2.30;2.10;;;;;;;21.49;34.75;99966.72;4530271;28;20040;-58
2023/04/15 08:53:43;;;;;;;2.05;1.85;;;;;;;21.53;34.48;99970.50;4531791;28;20091;-59
2023/04/15 08:55:56;;;;;;;1.80;1.70;;;;;;;21.47;34.53;99972.84;4530766;28;20627;-60
2023/04/15 08:58:07;;;;;;;1.70;1.60;;;;;;;21.51;34.33;99975.78;4531714;28;20107;-64
2023/04/15 09:00:17;;;;;;;1.55;1.42;;;;;;;21.34;34.36;99944.78;4532097;28;20547;-60
2023/04/15 09:02:28;;;;;;;1.50;1.40;;;;;;;21.54;34.58;99980.75;4531252;28;20041;-60
2023/04/15 09:04:39;;;;;;;1.42;1.33;;;;;;;21.52;35.00;99972.53;4533229;28;20036;-57
2023/04/15 09:06:51;;;;;;;1.63;1.52;;;;;;;21.52;34.53;99972.53;4534002;28;20033;-60
2023/04/15 09:09:01;;;;;;;1.63;1.50;;;;;;;21.52;35.00;99974.56;4533341;28;20575;-58
2023/04/15 09:11:12;;;;;;;1.90;1.70;;;;;;;21.47;34.87;99974.91;4530579;28;20048;-58
2023/04/15 09:13:22;;;;;;;2.00;1.80;;;;;;;21.51;34.78;99981.53;4534324;28;20033;-58
2023/04/15 09:15:37;;;;;;;1.70;1.60;;;;;;;21.55;34.67;99988.97;4533772;28;20045;-59
2023/04/15 09:17:47;;;;;;;1.70;1.60;;;;;;;21.55;35.00;99988.97;4531773;28;20076;-57
2023/04/15 09:20:12;;;;;;;1.70;1.60;;;;;;;21.55;35.18;99988.16;4531878;28;20030;-59
2023/04/15 09:22:23;;;;;;;1.80;1.70;;;;;;;21.54;35.42;99995.09;4533163;28;21338;-58
2023/04/15 09:24:38;;;;;;;1.60;1.50;;;;;;;21.50;35.32;99994.25;4530709;28;20136;-57
2023/04/15 09:26:53;;;;;;;1.83;1.67;;;;;;;21.56;35.11;100005.00;4531499;28;21070;-57
2023/04/15 09:29:13;;;;;;;1.77;1.58;;;;;;;21.57;34.81;100006.66;4530734;28;20749;-57
2023/04/15 09:31:29;;;;;;;1.70;1.60;;;;;;;21.58;34.98;100008.28;4532271;28;20740;-57
2023/04/15 09:33:55;;;;;;;1.67;1.58;;;;;;;21.58;35.18;100007.50;4533987;28;21529;-58
2023/04/15 09:36:06;;;;;;;1.75;1.60;;;;;;;21.55;35.22;100006.19;4531951;28;21325;-57
2023/04/15 09:38:16;;;;;;;1.95;1.65;;;;;;;21.50;35.07;100000.00;4530121;28;20041;-57
2023/04/15 09:40:37;;;;;;;1.75;1.65;;;;;;;21.56;35.02;100013.63;4533663;28;20280;-57
2023/04/15 09:42:55;;;;;;;1.77;1.63;;;;;;;21.47;35.32;100006.50;4532391;28;20034;-57
2023/04/15 09:45:11;;;;;;;1.73;1.60;;;;;;;21.56;34.98;100016.50;4531878;28;20037;-58
2023/04/15 09:47:30;;;;;;;1.60;1.50;;;;;;;21.54;34.86;100016.03;4533511;28;20114;-58
2023/04/15 09:49:55;;;;;;;2.25;1.90;;;;;;;21.57;35.24;100029.63;4531592;28;20037;-58
2023/04/15 09:52:05;;;;;;;1.60;1.50;;;;;;;21.54;35.53;100006.59;4515351;28;20041;-57
2023/04/15 09:54:22;;;;;;;1.70;1.60;;;;;;;21.57;35.22;100011.56;4532805;28;20041;-58
2023/04/15 09:56:41;;;;;;;1.70;1.60;;;;;;;21.58;35.33;100018.97;4533313;28;20817;-58
2023/04/15 09:58:56;;;;;;;1.50;1.40;;;;;;;21.55;35.29;100014.81;4534056;28;20600;-58
2023/04/15 10:01:07;;;;;;;1.50;1.40;;;;;;;21.57;35.10;100017.31;4512926;28;20049;-58
2023/04/15 10:03:24;;;;;;;1.40;1.30;;;;;;;21.56;35.46;100015.66;4533339;28;20616;-58
2023/04/15 10:05:36;;;;;;;1.42;1.33;;;;;;;21.54;35.31;100023.81;4532127;28;20148;-58
2023/04/15 10:07:47;;;;;;;1.40;1.30;;;;;;;21.43;35.32;100000.69;4532211;28;20132;-58
2023/04/15 10:09:59;;;;;;;1.40;1.30;;;;;;;21.55;35.37;100017.69;4531874;28;20099;-57
2023/04/15 10:12:10;;;;;;;1.50;1.40;;;;;;;21.56;35.06;100022.25;4534107;28;20032;-59
2023/04/15 10:14:22;;;;;;;1.40;1.30;;;;;;;21.57;35.30;100015.25;4531326;28;20073;-58
2023/04/15 10:16:35;;;;;;;1.30;1.20;;;;;;;21.54;35.41;100010.31;4510485;28;20070;-61